sensor_id;sensor_type;location;lat;lon;timestamp;P1;durP1;ratioP1;P2;durP2;ratioP2
22270;SDS011;11304;53.520;10.104;2022-10-16T00:01:19;8.30;;;6.60;;
22270;SDS011;11304;53.520;10.104;2022-10-16T00:03:46;8.25;;;7.45;;
22270;SDS011;11304;53.520;10.104;2022-10-16T00:06:12;8.50;;;7.70;;
22270;SDS011;11304;53.520;10.104;2022-10-16T00:08:39;9.60;;;7.03;;
22270;SDS011;11304;53.520;10.104;2022-10-16T00:11:07;8.52;;;7.63;;
22270;SDS011;11304;53.520;10.104;2022-10-16T00:13:39;8.57;;;6.97;;
22270;SDS011;11304;53.520;10.104;2022-10-16T00:16:06;10.32;;;8.10;;
22270;SDS011;11304;53.520;10.104;2022-10-16T00:18:32;6.93;;;6.22;;
22270;SDS011;11304;53.520;10.104;2022-10-16T00:21:02;7.57;;;6.18;;
22270;SDS011;11304;53.520;10.104;2022-10-16T00:23:30;9.48;;;7.13;;
22270;SDS011;11304;53.520;10.104;2022-10-16T00:25:57;8.63;;;6.65;;
22270;SDS011;11304;53.520;10.104;2022-10-16T00:28:24;8.05;;;7.25;;
22270;SDS011;11304;53.520;10.104;2022-10-16T00:30:51;10.85;;;7.13;;
22270;SDS011;11304;53.520;10.104;2022-10-16T00:33:17;7.63;;;6.55;;
22270;SDS011;11304;53.520;10.104;2022-10-16T00:35:43;7.15;;;6.25;;
22270;SDS011;11304;53.520;10.104;2022-10-16T00:38:09;7.07;;;6.38;;
22270;SDS011;11304;53.520;10.104;2022-10-16T00:40:35;8.63;;;6.75;;
22270;SDS011;11304;53.520;10.104;2022-10-16T00:43:00;8.38;;;6.55;;
22270;SDS011;11304;53.520;10.104;2022-10-16T00:45:26;10.00;;;6.85;;
22270;SDS011;11304;53.520;10.104;2022-10-16T00:47:52;7.68;;;5.60;;
22270;SDS011;11304;53.520;10.104;2022-10-16T00:50:27;7.03;;;5.57;;
22270;SDS011;11304;53.520;10.104;2022-10-16T00:52:55;8.68;;;6.28;;
22270;SDS011;11304;53.520;10.104;2022-10-16T00:55:24;8.02;;;5.93;;
22270;SDS011;11304;53.520;10.104;2022-10-16T00:57:50;8.90;;;6.65;;
22270;SDS011;11304;53.520;10.104;2022-10-16T01:00:19;11.88;;;6.45;;
22270;SDS011;11304;53.520;10.104;2022-10-16T01:02:55;7.05;;;6.30;;
22270;SDS011;11304;53.520;10.104;2022-10-16T01:05:23;8.80;;;7.25;;
22270;SDS011;11304;53.520;10.104;2022-10-16T01:08:15;9.73;;;6.80;;
22270;SDS011;11304;53.520;10.104;2022-10-16T01:13:43;10.15;;;7.40;;
22270;SDS011;11304;53.520;10.104;2022-10-16T01:19:26;10.35;;;6.90;;
22270;SDS011;11304;53.520;10.104;2022-10-16T01:22:16;11.82;;;7.03;;
22270;SDS011;11304;53.520;10.104;2022-10-16T01:24:45;8.30;;;6.40;;
22270;SDS011;11304;53.520;10.104;2022-10-16T01:27:15;8.75;;;6.40;;
22270;SDS011;11304;53.520;10.104;2022-10-16T01:29:52;8.87;;;6.47;;
22270;SDS011;11304;53.520;10.104;2022-10-16T01:34:48;8.52;;;5.53;;
22270;SDS011;11304;53.520;10.104;2022-10-16T01:37:15;8.40;;;5.18;;
22270;SDS011;11304;53.520;10.104;2022-10-16T01:39:50;7.55;;;5.22;;
22270;SDS011;11304;53.520;10.104;2022-10-16T01:42:24;7.25;;;4.97;;
22270;SDS011;11304;53.520;10.104;2022-10-16T01:44:56;7.07;;;4.63;;
22270;SDS011;11304;53.520;10.104;2022-10-16T01:47:23;6.18;;;4.57;;
22270;SDS011;11304;53.520;10.104;2022-10-16T01:49:51;5.77;;;4.47;;
22270;SDS011;11304;53.520;10.104;2022-10-16T01:52:20;5.22;;;4.15;;
22270;SDS011;11304;53.520;10.104;2022-10-16T01:54:49;8.07;;;4.65;;
22270;SDS011;11304;53.520;10.104;2022-10-16T01:57:18;6.55;;;4.45;;
22270;SDS011;11304;53.520;10.104;2022-10-16T01:59:47;4.80;;;3.75;;
22270;SDS011;11304;53.520;10.104;2022-10-16T02:02:17;6.65;;;3.80;;
22270;SDS011;11304;53.520;10.104;2022-10-16T02:07:12;4.80;;;3.60;;
22270;SDS011;11304;53.520;10.104;2022-10-16T02:09:39;10.18;;;4.55;;
22270;SDS011;11304;53.520;10.104;2022-10-16T02:12:10;6.38;;;4.10;;
22270;SDS011;11304;53.520;10.104;2022-10-16T02:14:40;5.22;;;3.33;;
22270;SDS011;11304;53.520;10.104;2022-10-16T02:17:10;5.10;;;3.55;;
22270;SDS011;11304;53.520;10.104;2022-10-16T02:19:38;5.82;;;3.00;;
22270;SDS011;11304;53.520;10.104;2022-10-16T02:22:04;5.20;;;3.75;;
22270;SDS011;11304;53.520;10.104;2022-10-16T02:24:38;5.10;;;3.35;;
22270;SDS011;11304;53.520;10.104;2022-10-16T02:27:13;4.68;;;3.05;;
22270;SDS011;11304;53.520;10.104;2022-10-16T02:29:44;3.67;;;2.95;;
22270;SDS011;11304;53.520;10.104;2022-10-16T02:32:20;5.30;;;3.17;;
22270;SDS011;11304;53.520;10.104;2022-10-16T02:34:48;4.93;;;2.90;;
22270;SDS011;11304;53.520;10.104;2022-10-16T02:37:16;4.43;;;2.70;;
22270;SDS011;11304;53.520;10.104;2022-10-16T02:39:43;6.88;;;2.80;;
22270;SDS011;11304;53.520;10.104;2022-10-16T02:42:12;5.40;;;3.00;;
22270;SDS011;11304;53.520;10.104;2022-10-16T02:44:39;4.95;;;2.88;;
22270;SDS011;11304;53.520;10.104;2022-10-16T02:47:05;4.75;;;2.42;;
22270;SDS011;11304;53.520;10.104;2022-10-16T02:49:30;2.50;;;2.28;;
22270;SDS011;11304;53.520;10.104;2022-10-16T02:51:56;5.45;;;2.20;;
22270;SDS011;11304;53.520;10.104;2022-10-16T02:54:22;3.33;;;1.80;;
22270;SDS011;11304;53.520;10.104;2022-10-16T02:56:47;6.63;;;2.50;;
22270;SDS011;11304;53.520;10.104;2022-10-16T02:59:13;5.15;;;2.30;;
22270;SDS011;11304;53.520;10.104;2022-10-16T03:01:39;5.15;;;2.40;;
22270;SDS011;11304;53.520;10.104;2022-10-16T03:04:04;5.35;;;2.47;;
22270;SDS011;11304;53.520;10.104;2022-10-16T03:06:30;5.72;;;2.00;;
22270;SDS011;11304;53.520;10.104;2022-10-16T03:08:56;2.95;;;2.25;;
22270;SDS011;11304;53.520;10.104;2022-10-16T03:11:21;6.93;;;2.30;;
22270;SDS011;11304;53.520;10.104;2022-10-16T03:13:47;4.07;;;2.00;;
22270;SDS011;11304;53.520;10.104;2022-10-16T03:16:13;5.43;;;2.05;;
22270;SDS011;11304;53.520;10.104;2022-10-16T03:18:38;4.82;;;1.92;;
22270;SDS011;11304;53.520;10.104;2022-10-16T03:21:04;3.53;;;2.10;;
22270;SDS011;11304;53.520;10.104;2022-10-16T03:23:30;5.38;;;2.00;;
22270;SDS011;11304;53.520;10.104;2022-10-16T03:25:55;3.78;;;1.92;;
22270;SDS011;11304;53.520;10.104;2022-10-16T03:28:21;4.50;;;2.08;;
22270;SDS011;11304;53.520;10.104;2022-10-16T03:30:47;3.85;;;2.00;;
22270;SDS011;11304;53.520;10.104;2022-10-16T03:33:12;4.57;;;2.05;;
22270;SDS011;11304;53.520;10.104;2022-10-16T03:35:38;4.55;;;2.13;;
22270;SDS011;11304;53.520;10.104;2022-10-16T03:38:04;3.22;;;1.98;;
22270;SDS011;11304;53.520;10.104;2022-10-16T03:40:29;3.83;;;1.90;;
22270;SDS011;11304;53.520;10.104;2022-10-16T03:42:57;4.13;;;1.90;;
22270;SDS011;11304;53.520;10.104;2022-10-16T03:45:23;4.05;;;2.20;;
22270;SDS011;11304;53.520;10.104;2022-10-16T03:47:49;3.83;;;1.90;;
22270;SDS011;11304;53.520;10.104;2022-10-16T03:50:15;5.05;;;1.90;;
22270;SDS011;11304;53.520;10.104;2022-10-16T03:52:41;5.07;;;1.73;;
22270;SDS011;11304;53.520;10.104;2022-10-16T03:55:07;4.22;;;1.77;;
22270;SDS011;11304;53.520;10.104;2022-10-16T03:57:33;5.50;;;1.98;;
22270;SDS011;11304;53.520;10.104;2022-10-16T03:59:58;4.57;;;1.80;;
22270;SDS011;11304;53.520;10.104;2022-10-16T04:02:24;5.90;;;1.90;;
22270;SDS011;11304;53.520;10.104;2022-10-16T04:04:50;3.25;;;1.58;;
22270;SDS011;11304;53.520;10.104;2022-10-16T04:07:16;4.78;;;1.98;;
22270;SDS011;11304;53.520;10.104;2022-10-16T04:09:41;4.30;;;1.90;;
22270;SDS011;11304;53.520;10.104;2022-10-16T04:12:07;6.28;;;2.10;;
22270;SDS011;11304;53.520;10.104;2022-10-16T04:14:33;7.30;;;2.13;;
22270;SDS011;11304;53.520;10.104;2022-10-16T04:16:59;6.95;;;1.83;;
22270;SDS011;11304;53.520;10.104;2022-10-16T04:19:24;6.45;;;1.60;;
22270;SDS011;11304;53.520;10.104;2022-10-16T04:21:51;5.32;;;1.77;;
22270;SDS011;11304;53.520;10.104;2022-10-16T04:24:17;5.70;;;2.03;;
22270;SDS011;11304;53.520;10.104;2022-10-16T04:26:42;6.90;;;1.70;;
22270;SDS011;11304;53.520;10.104;2022-10-16T04:29:08;6.57;;;1.95;;
22270;SDS011;11304;53.520;10.104;2022-10-16T04:31:34;3.15;;;1.55;;
22270;SDS011;11304;53.520;10.104;2022-10-16T04:33:59;2.28;;;1.48;;
22270;SDS011;11304;53.520;10.104;2022-10-16T04:36:25;6.03;;;1.70;;
22270;SDS011;11304;53.520;10.104;2022-10-16T04:38:51;5.28;;;1.65;;
22270;SDS011;11304;53.520;10.104;2022-10-16T04:41:16;3.97;;;1.60;;
22270;SDS011;11304;53.520;10.104;2022-10-16T04:43:42;4.80;;;1.88;;
22270;SDS011;11304;53.520;10.104;2022-10-16T04:46:08;4.97;;;1.90;;
22270;SDS011;11304;53.520;10.104;2022-10-16T04:48:35;4.90;;;1.77;;
22270;SDS011;11304;53.520;10.104;2022-10-16T04:51:00;5.82;;;2.10;;
22270;SDS011;11304;53.520;10.104;2022-10-16T04:53:26;4.80;;;1.83;;
22270;SDS011;11304;53.520;10.104;2022-10-16T04:55:52;4.63;;;1.80;;
22270;SDS011;11304;53.520;10.104;2022-10-16T04:58:18;4.97;;;1.75;;
22270;SDS011;11304;53.520;10.104;2022-10-16T05:00:44;2.95;;;1.80;;
22270;SDS011;11304;53.520;10.104;2022-10-16T05:03:11;5.32;;;1.90;;
22270;SDS011;11304;53.520;10.104;2022-10-16T05:05:41;7.18;;;2.25;;
22270;SDS011;11304;53.520;10.104;2022-10-16T05:08:09;4.43;;;1.95;;
22270;SDS011;11304;53.520;10.104;2022-10-16T05:10:35;6.78;;;2.15;;
22270;SDS011;11304;53.520;10.104;2022-10-16T05:13:01;4.95;;;2.22;;
22270;SDS011;11304;53.520;10.104;2022-10-16T05:15:26;4.72;;;1.92;;
22270;SDS011;11304;53.520;10.104;2022-10-16T05:17:54;8.18;;;2.20;;
22270;SDS011;11304;53.520;10.104;2022-10-16T05:20:20;7.80;;;2.47;;
22270;SDS011;11304;53.520;10.104;2022-10-16T05:22:46;5.18;;;2.40;;
22270;SDS011;11304;53.520;10.104;2022-10-16T05:25:12;5.80;;;2.28;;
22270;SDS011;11304;53.520;10.104;2022-10-16T05:27:38;5.20;;;2.05;;
22270;SDS011;11304;53.520;10.104;2022-10-16T05:30:04;5.68;;;2.42;;
22270;SDS011;11304;53.520;10.104;2022-10-16T05:32:30;4.82;;;2.08;;
22270;SDS011;11304;53.520;10.104;2022-10-16T05:34:56;4.93;;;2.03;;
22270;SDS011;11304;53.520;10.104;2022-10-16T05:37:24;4.50;;;2.50;;
22270;SDS011;11304;53.520;10.104;2022-10-16T05:39:49;3.88;;;2.17;;
22270;SDS011;11304;53.520;10.104;2022-10-16T05:42:15;4.43;;;1.83;;
22270;SDS011;11304;53.520;10.104;2022-10-16T05:44:41;7.35;;;2.08;;
22270;SDS011;11304;53.520;10.104;2022-10-16T05:47:06;3.95;;;1.85;;
22270;SDS011;11304;53.520;10.104;2022-10-16T05:49:32;3.88;;;1.80;;
22270;SDS011;11304;53.520;10.104;2022-10-16T05:51:58;4.63;;;2.20;;
22270;SDS011;11304;53.520;10.104;2022-10-16T05:54:23;4.65;;;1.98;;
22270;SDS011;11304;53.520;10.104;2022-10-16T05:56:49;3.80;;;2.20;;
22270;SDS011;11304;53.520;10.104;2022-10-16T05:59:15;6.75;;;2.40;;
22270;SDS011;11304;53.520;10.104;2022-10-16T06:01:41;7.63;;;2.10;;
22270;SDS011;11304;53.520;10.104;2022-10-16T06:04:07;7.35;;;1.95;;
22270;SDS011;11304;53.520;10.104;2022-10-16T06:06:33;6.40;;;2.58;;
22270;SDS011;11304;53.520;10.104;2022-10-16T06:09:01;6.28;;;2.20;;
22270;SDS011;11304;53.520;10.104;2022-10-16T06:11:29;5.13;;;2.30;;
22270;SDS011;11304;53.520;10.104;2022-10-16T06:13:57;5.32;;;2.38;;
22270;SDS011;11304;53.520;10.104;2022-10-16T06:16:26;4.95;;;2.40;;
22270;SDS011;11304;53.520;10.104;2022-10-16T06:18:52;7.75;;;2.30;;
22270;SDS011;11304;53.520;10.104;2022-10-16T06:21:20;5.15;;;2.42;;
22270;SDS011;11304;53.520;10.104;2022-10-16T06:23:47;4.03;;;1.50;;
22270;SDS011;11304;53.520;10.104;2022-10-16T06:26:17;5.97;;;2.80;;
22270;SDS011;11304;53.520;10.104;2022-10-16T06:28:45;8.00;;;2.90;;
22270;SDS011;11304;53.520;10.104;2022-10-16T06:31:11;7.13;;;2.90;;
22270;SDS011;11304;53.520;10.104;2022-10-16T06:33:37;6.30;;;3.30;;
22270;SDS011;11304;53.520;10.104;2022-10-16T06:36:08;8.68;;;3.03;;
22270;SDS011;11304;53.520;10.104;2022-10-16T06:38:36;10.25;;;2.63;;
22270;SDS011;11304;53.520;10.104;2022-10-16T06:41:03;10.13;;;2.85;;
22270;SDS011;11304;53.520;10.104;2022-10-16T06:43:30;5.68;;;2.50;;
22270;SDS011;11304;53.520;10.104;2022-10-16T06:45:57;6.22;;;2.70;;
22270;SDS011;11304;53.520;10.104;2022-10-16T06:48:24;7.65;;;3.05;;
22270;SDS011;11304;53.520;10.104;2022-10-16T06:50:57;7.32;;;2.80;;
22270;SDS011;11304;53.520;10.104;2022-10-16T06:53:28;7.22;;;2.85;;
22270;SDS011;11304;53.520;10.104;2022-10-16T06:55:55;5.50;;;2.65;;
22270;SDS011;11304;53.520;10.104;2022-10-16T06:58:21;6.55;;;3.00;;
22270;SDS011;11304;53.520;10.104;2022-10-16T07:00:48;5.63;;;2.80;;
22270;SDS011;11304;53.520;10.104;2022-10-16T07:03:14;10.85;;;4.43;;
22270;SDS011;11304;53.520;10.104;2022-10-16T07:05:42;6.38;;;2.83;;
22270;SDS011;11304;53.520;10.104;2022-10-16T07:08:08;5.38;;;2.40;;
22270;SDS011;11304;53.520;10.104;2022-10-16T07:10:34;9.38;;;2.70;;
22270;SDS011;11304;53.520;10.104;2022-10-16T07:13:01;6.25;;;3.00;;
22270;SDS011;11304;53.520;10.104;2022-10-16T07:15:26;5.20;;;2.78;;
22270;SDS011;11304;53.520;10.104;2022-10-16T07:17:52;5.25;;;2.67;;
22270;SDS011;11304;53.520;10.104;2022-10-16T07:20:18;8.27;;;2.97;;
22270;SDS011;11304;53.520;10.104;2022-10-16T07:22:44;6.05;;;3.30;;
22270;SDS011;11304;53.520;10.104;2022-10-16T07:25:10;6.95;;;2.60;;
22270;SDS011;11304;53.520;10.104;2022-10-16T07:27:36;7.85;;;2.83;;
22270;SDS011;11304;53.520;10.104;2022-10-16T07:30:03;10.00;;;3.00;;
22270;SDS011;11304;53.520;10.104;2022-10-16T07:32:29;4.90;;;2.55;;
22270;SDS011;11304;53.520;10.104;2022-10-16T07:34:55;6.55;;;2.80;;
22270;SDS011;11304;53.520;10.104;2022-10-16T07:37:21;6.95;;;2.30;;
22270;SDS011;11304;53.520;10.104;2022-10-16T07:39:47;5.18;;;2.40;;
22270;SDS011;11304;53.520;10.104;2022-10-16T07:42:13;7.93;;;2.78;;
22270;SDS011;11304;53.520;10.104;2022-10-16T07:44:39;8.43;;;2.40;;
22270;SDS011;11304;53.520;10.104;2022-10-16T07:47:05;5.40;;;2.47;;
22270;SDS011;11304;53.520;10.104;2022-10-16T07:49:31;7.55;;;2.42;;
22270;SDS011;11304;53.520;10.104;2022-10-16T07:51:56;5.10;;;2.83;;
22270;SDS011;11304;53.520;10.104;2022-10-16T07:54:22;4.13;;;2.20;;
22270;SDS011;11304;53.520;10.104;2022-10-16T07:56:48;6.55;;;2.60;;
22270;SDS011;11304;53.520;10.104;2022-10-16T07:59:13;4.78;;;2.40;;
22270;SDS011;11304;53.520;10.104;2022-10-16T08:01:39;6.35;;;2.60;;
22270;SDS011;11304;53.520;10.104;2022-10-16T08:04:07;7.38;;;2.53;;
22270;SDS011;11304;53.520;10.104;2022-10-16T08:06:38;6.80;;;2.20;;
22270;SDS011;11304;53.520;10.104;2022-10-16T08:09:05;6.47;;;2.20;;
22270;SDS011;11304;53.520;10.104;2022-10-16T08:11:32;5.97;;;2.30;;
22270;SDS011;11304;53.520;10.104;2022-10-16T08:13:57;5.18;;;2.20;;
22270;SDS011;11304;53.520;10.104;2022-10-16T08:16:23;4.47;;;2.55;;
22270;SDS011;11304;53.520;10.104;2022-10-16T08:18:49;5.75;;;2.40;;
22270;SDS011;11304;53.520;10.104;2022-10-16T08:21:17;5.50;;;2.00;;
22270;SDS011;11304;53.520;10.104;2022-10-16T08:23:44;7.95;;;2.78;;
22270;SDS011;11304;53.520;10.104;2022-10-16T08:26:10;4.35;;;2.67;;
22270;SDS011;11304;53.520;10.104;2022-10-16T08:28:37;6.07;;;2.65;;
22270;SDS011;11304;53.520;10.104;2022-10-16T08:31:07;3.38;;;2.22;;
22270;SDS011;11304;53.520;10.104;2022-10-16T08:33:40;6.05;;;2.05;;
22270;SDS011;11304;53.520;10.104;2022-10-16T08:36:07;4.78;;;2.00;;
22270;SDS011;11304;53.520;10.104;2022-10-16T08:38:34;5.30;;;2.63;;
22270;SDS011;11304;53.520;10.104;2022-10-16T08:46:25;4.00;;;1.60;;
22270;SDS011;11304;53.520;10.104;2022-10-16T08:48:56;4.90;;;1.70;;
22270;SDS011;11304;53.520;10.104;2022-10-16T08:51:25;5.88;;;1.60;;
22270;SDS011;11304;53.520;10.104;2022-10-16T08:53:58;5.75;;;1.70;;
22270;SDS011;11304;53.520;10.104;2022-10-16T08:56:27;3.67;;;1.77;;
22270;SDS011;11304;53.520;10.104;2022-10-16T08:58:53;3.03;;;1.45;;
22270;SDS011;11304;53.520;10.104;2022-10-16T09:01:20;7.30;;;1.75;;
22270;SDS011;11304;53.520;10.104;2022-10-16T09:06:57;3.88;;;1.90;;
22270;SDS011;11304;53.520;10.104;2022-10-16T09:12:37;5.40;;;1.48;;
22270;SDS011;11304;53.520;10.104;2022-10-16T09:15:21;5.15;;;1.98;;
22270;SDS011;11304;53.520;10.104;2022-10-16T09:18:03;3.63;;;1.40;;
22270;SDS011;11304;53.520;10.104;2022-10-16T09:20:49;2.97;;;1.20;;
22270;SDS011;11304;53.520;10.104;2022-10-16T09:23:45;3.13;;;1.30;;
22270;SDS011;11304;53.520;10.104;2022-10-16T09:26:11;3.72;;;1.40;;
22270;SDS011;11304;53.520;10.104;2022-10-16T09:28:39;5.63;;;1.50;;
22270;SDS011;11304;53.520;10.104;2022-10-16T09:31:05;5.28;;;1.48;;
22270;SDS011;11304;53.520;10.104;2022-10-16T09:33:36;4.43;;;1.65;;
22270;SDS011;11304;53.520;10.104;2022-10-16T09:36:04;5.43;;;1.48;;
22270;SDS011;11304;53.520;10.104;2022-10-16T09:38:32;3.47;;;1.27;;
22270;SDS011;11304;53.520;10.104;2022-10-16T09:41:02;5.78;;;1.42;;
22270;SDS011;11304;53.520;10.104;2022-10-16T09:43:53;4.25;;;1.38;;
22270;SDS011;11304;53.520;10.104;2022-10-16T09:46:30;2.42;;;1.00;;
22270;SDS011;11304;53.520;10.104;2022-10-16T09:49:05;3.38;;;1.30;;
22270;SDS011;11304;53.520;10.104;2022-10-16T09:51:45;6.20;;;1.20;;
22270;SDS011;11304;53.520;10.104;2022-10-16T09:54:14;4.10;;;1.00;;
22270;SDS011;11304;53.520;10.104;2022-10-16T09:56:42;1.58;;;0.90;;
22270;SDS011;11304;53.520;10.104;2022-10-16T10:01:51;4.72;;;1.40;;
22270;SDS011;11304;53.520;10.104;2022-10-16T10:04:18;7.55;;;1.63;;
22270;SDS011;11304;53.520;10.104;2022-10-16T10:06:46;3.65;;;1.25;;
22270;SDS011;11304;53.520;10.104;2022-10-16T10:14:24;3.88;;;1.25;;
22270;SDS011;11304;53.520;10.104;2022-10-16T10:19:36;6.70;;;1.55;;
22270;SDS011;11304;53.520;10.104;2022-10-16T10:22:22;5.55;;;1.17;;
22270;SDS011;11304;53.520;10.104;2022-10-16T10:25:07;3.10;;;1.13;;
22270;SDS011;11304;53.520;10.104;2022-10-16T10:30:18;2.30;;;0.90;;
22270;SDS011;11304;53.520;10.104;2022-10-16T10:35:32;2.95;;;1.00;;
22270;SDS011;11304;53.520;10.104;2022-10-16T10:43:35;4.25;;;0.93;;
22270;SDS011;11304;53.520;10.104;2022-10-16T10:46:18;6.28;;;0.98;;
22270;SDS011;11304;53.520;10.104;2022-10-16T10:54:36;11.07;;;1.30;;
22270;SDS011;11304;53.520;10.104;2022-10-16T11:00:18;5.50;;;1.17;;
22270;SDS011;11304;53.520;10.104;2022-10-16T11:03:11;3.03;;;0.90;;
22270;SDS011;11304;53.520;10.104;2022-10-16T11:05:42;4.13;;;1.23;;
22270;SDS011;11304;53.520;10.104;2022-10-16T11:08:17;5.43;;;1.15;;
22270;SDS011;11304;53.520;10.104;2022-10-16T11:10:52;5.18;;;1.40;;
22270;SDS011;11304;53.520;10.104;2022-10-16T11:13:42;4.93;;;1.13;;
22270;SDS011;11304;53.520;10.104;2022-10-16T11:16:29;5.40;;;1.02;;
22270;SDS011;11304;53.520;10.104;2022-10-16T11:21:59;5.35;;;1.20;;
22270;SDS011;11304;53.520;10.104;2022-10-16T11:24:39;6.07;;;1.30;;
22270;SDS011;11304;53.520;10.104;2022-10-16T11:27:12;5.32;;;1.20;;
22270;SDS011;11304;53.520;10.104;2022-10-16T11:30:03;4.93;;;1.30;;
22270;SDS011;11304;53.520;10.104;2022-10-16T11:32:32;2.38;;;1.05;;
22270;SDS011;11304;53.520;10.104;2022-10-16T11:35:21;6.07;;;1.30;;
22270;SDS011;11304;53.520;10.104;2022-10-16T11:37:57;5.55;;;1.00;;
22270;SDS011;11304;53.520;10.104;2022-10-16T11:40:33;7.00;;;1.00;;
22270;SDS011;11304;53.520;10.104;2022-10-16T11:43:17;7.88;;;1.17;;
22270;SDS011;11304;53.520;10.104;2022-10-16T11:46:04;3.15;;;0.70;;
22270;SDS011;11304;53.520;10.104;2022-10-16T11:48:48;6.15;;;0.93;;
22270;SDS011;11304;53.520;10.104;2022-10-16T11:54:07;3.53;;;1.02;;
22270;SDS011;11304;53.520;10.104;2022-10-16T11:56:37;3.65;;;0.88;;
22270;SDS011;11304;53.520;10.104;2022-10-16T12:01:47;6.93;;;1.42;;
22270;SDS011;11304;53.520;10.104;2022-10-16T12:07:11;7.45;;;1.55;;
22270;SDS011;11304;53.520;10.104;2022-10-16T12:09:42;4.32;;;1.15;;
22270;SDS011;11304;53.520;10.104;2022-10-16T12:12:27;5.47;;;1.13;;
22270;SDS011;11304;53.520;10.104;2022-10-16T12:15:15;3.17;;;0.90;;
22270;SDS011;11304;53.520;10.104;2022-10-16T12:18:01;3.58;;;1.08;;
22270;SDS011;11304;53.520;10.104;2022-10-16T12:20:30;3.22;;;1.00;;
22270;SDS011;11304;53.520;10.104;2022-10-16T12:23:01;7.18;;;1.30;;
22270;SDS011;11304;53.520;10.104;2022-10-16T12:25:36;4.82;;;1.25;;
22270;SDS011;11304;53.520;10.104;2022-10-16T12:28:21;3.17;;;1.30;;
22270;SDS011;11304;53.520;10.104;2022-10-16T12:31:06;5.68;;;1.10;;
22270;SDS011;11304;53.520;10.104;2022-10-16T12:33:40;2.92;;;0.80;;
22270;SDS011;11304;53.520;10.104;2022-10-16T12:36:28;4.97;;;1.20;;
22270;SDS011;11304;53.520;10.104;2022-10-16T12:38:55;5.75;;;1.13;;
22270;SDS011;11304;53.520;10.104;2022-10-16T12:43:53;4.55;;;1.50;;
22270;SDS011;11304;53.520;10.104;2022-10-16T12:49:04;5.07;;;1.15;;
22270;SDS011;11304;53.520;10.104;2022-10-16T12:56:37;2.80;;;0.82;;
22270;SDS011;11304;53.520;10.104;2022-10-16T13:26:33;5.70;;;1.08;;
22270;SDS011;11304;53.520;10.104;2022-10-16T13:29:07;5.35;;;1.70;;
22270;SDS011;11304;53.520;10.104;2022-10-16T13:31:36;7.78;;;1.48;;
22270;SDS011;11304;53.520;10.104;2022-10-16T13:34:03;4.43;;;1.27;;
22270;SDS011;11304;53.520;10.104;2022-10-16T13:36:34;5.53;;;1.20;;
22270;SDS011;11304;53.520;10.104;2022-10-16T13:39:12;5.38;;;1.33;;
22270;SDS011;11304;53.520;10.104;2022-10-16T13:44:49;7.60;;;0.80;;
22270;SDS011;11304;53.520;10.104;2022-10-16T13:49:47;3.55;;;0.98;;
22270;SDS011;11304;53.520;10.104;2022-10-16T13:52:26;3.33;;;1.10;;
22270;SDS011;11304;53.520;10.104;2022-10-16T13:54:52;6.25;;;1.10;;
22270;SDS011;11304;53.520;10.104;2022-10-16T13:57:18;6.35;;;1.17;;
22270;SDS011;11304;53.520;10.104;2022-10-16T13:59:48;4.88;;;1.10;;
22270;SDS011;11304;53.520;10.104;2022-10-16T14:04:46;7.53;;;1.48;;
22270;SDS011;11304;53.520;10.104;2022-10-16T14:07:18;7.22;;;1.40;;
22270;SDS011;11304;53.520;10.104;2022-10-16T14:09:50;4.20;;;1.08;;
22270;SDS011;11304;53.520;10.104;2022-10-16T14:12:16;6.55;;;1.35;;
22270;SDS011;11304;53.520;10.104;2022-10-16T14:14:43;3.40;;;1.20;;
22270;SDS011;11304;53.520;10.104;2022-10-16T14:17:23;6.97;;;1.30;;
22270;SDS011;11304;53.520;10.104;2022-10-16T14:19:52;5.25;;;1.13;;
22270;SDS011;11304;53.520;10.104;2022-10-16T14:22:34;5.18;;;1.27;;
22270;SDS011;11304;53.520;10.104;2022-10-16T14:25:20;7.43;;;1.23;;
22270;SDS011;11304;53.520;10.104;2022-10-16T14:30:48;5.25;;;1.25;;
22270;SDS011;11304;53.520;10.104;2022-10-16T14:41:27;4.55;;;1.40;;
22270;SDS011;11304;53.520;10.104;2022-10-16T14:43:56;9.50;;;1.60;;
22270;SDS011;11304;53.520;10.104;2022-10-16T14:46:28;5.35;;;1.15;;
22270;SDS011;11304;53.520;10.104;2022-10-16T14:49:02;9.00;;;1.33;;
22270;SDS011;11304;53.520;10.104;2022-10-16T14:51:41;6.70;;;1.55;;
22270;SDS011;11304;53.520;10.104;2022-10-16T14:54:08;6.60;;;1.27;;
22270;SDS011;11304;53.520;10.104;2022-10-16T14:56:43;4.32;;;1.30;;
22270;SDS011;11304;53.520;10.104;2022-10-16T14:59:17;8.48;;;1.40;;
22270;SDS011;11304;53.520;10.104;2022-10-16T15:01:52;4.55;;;1.23;;
22270;SDS011;11304;53.520;10.104;2022-10-16T15:04:18;4.80;;;1.30;;
22270;SDS011;11304;53.520;10.104;2022-10-16T15:06:44;4.88;;;1.17;;
22270;SDS011;11304;53.520;10.104;2022-10-16T15:09:10;3.38;;;1.35;;
22270;SDS011;11304;53.520;10.104;2022-10-16T15:11:36;6.57;;;1.33;;
22270;SDS011;11304;53.520;10.104;2022-10-16T15:14:02;6.20;;;1.63;;
22270;SDS011;11304;53.520;10.104;2022-10-16T15:16:28;6.13;;;1.45;;
22270;SDS011;11304;53.520;10.104;2022-10-16T15:18:54;4.53;;;1.25;;
22270;SDS011;11304;53.520;10.104;2022-10-16T15:21:23;6.65;;;1.50;;
22270;SDS011;11304;53.520;10.104;2022-10-16T15:23:51;6.25;;;1.45;;
22270;SDS011;11304;53.520;10.104;2022-10-16T15:26:17;8.55;;;1.70;;
22270;SDS011;11304;53.520;10.104;2022-10-16T15:28:43;6.78;;;1.50;;
22270;SDS011;11304;53.520;10.104;2022-10-16T15:31:08;7.18;;;1.73;;
22270;SDS011;11304;53.520;10.104;2022-10-16T15:33:34;4.53;;;1.60;;
22270;SDS011;11304;53.520;10.104;2022-10-16T15:36:00;6.97;;;2.28;;
22270;SDS011;11304;53.520;10.104;2022-10-16T15:38:27;10.98;;;1.90;;
22270;SDS011;11304;53.520;10.104;2022-10-16T15:40:54;8.60;;;1.63;;
22270;SDS011;11304;53.520;10.104;2022-10-16T15:43:19;7.72;;;1.60;;
22270;SDS011;11304;53.520;10.104;2022-10-16T15:46:19;4.80;;;1.30;;
22270;SDS011;11304;53.520;10.104;2022-10-16T15:48:39;6.35;;;1.25;;
22270;SDS011;11304;53.520;10.104;2022-10-16T15:51:05;8.43;;;1.50;;
22270;SDS011;11304;53.520;10.104;2022-10-16T15:53:33;7.57;;;1.73;;
22270;SDS011;11304;53.520;10.104;2022-10-16T15:56:02;7.45;;;1.50;;
22270;SDS011;11304;53.520;10.104;2022-10-16T15:58:32;8.75;;;1.67;;
22270;SDS011;11304;53.520;10.104;2022-10-16T16:00:58;6.07;;;1.35;;
22270;SDS011;11304;53.520;10.104;2022-10-16T16:03:28;7.53;;;1.63;;
22270;SDS011;11304;53.520;10.104;2022-10-16T16:05:55;7.03;;;1.38;;
22270;SDS011;11304;53.520;10.104;2022-10-16T16:08:21;5.15;;;1.30;;
22270;SDS011;11304;53.520;10.104;2022-10-16T16:11:03;6.28;;;1.38;;
22270;SDS011;11304;53.520;10.104;2022-10-16T16:13:30;6.93;;;1.50;;
22270;SDS011;11304;53.520;10.104;2022-10-16T16:15:56;10.55;;;1.67;;
22270;SDS011;11304;53.520;10.104;2022-10-16T16:18:22;6.45;;;1.25;;
22270;SDS011;11304;53.520;10.104;2022-10-16T16:20:49;5.90;;;1.25;;
22270;SDS011;11304;53.520;10.104;2022-10-16T16:23:15;7.63;;;1.67;;
22270;SDS011;11304;53.520;10.104;2022-10-16T16:25:41;4.95;;;1.63;;
22270;SDS011;11304;53.520;10.104;2022-10-16T16:28:07;7.53;;;1.83;;
22270;SDS011;11304;53.520;10.104;2022-10-16T16:30:35;9.00;;;1.50;;
22270;SDS011;11304;53.520;10.104;2022-10-16T16:33:01;8.32;;;1.92;;
22270;SDS011;11304;53.520;10.104;2022-10-16T16:35:27;9.07;;;1.70;;
22270;SDS011;11304;53.520;10.104;2022-10-16T16:37:53;8.70;;;2.05;;
22270;SDS011;11304;53.520;10.104;2022-10-16T16:40:19;9.20;;;1.70;;
22270;SDS011;11304;53.520;10.104;2022-10-16T16:42:47;5.50;;;1.63;;
22270;SDS011;11304;53.520;10.104;2022-10-16T16:45:13;5.25;;;1.50;;
22270;SDS011;11304;53.520;10.104;2022-10-16T16:47:39;9.38;;;1.60;;